Time;durP1;ratioP1;P1;durP2;ratioP2;P2;SDS_P1;SDS_P2;PMS_P1;PMS_P2;Temp;Humidity;BMP_temperature;BMP_pressure;BME280_temperature;BME280_humidity;BME280_pressure;Samples;Min_cycle;Max_cycle;Signal;HPM_P1;HPM_P2
2022/04/24 00:01:14;;;;;;;;;;;;;;;11.40;50.94;99586.50;5059296;28;19967;-81
2022/04/24 00:03:39;;;;;;;;;;;;;;;11.48;50.49;99581.81;5064212;28;19916;-81
2022/04/24 00:06:05;;;;;;;;;;;;;;;11.54;49.24;99581.53;5051771;28;19993;-81
2022/04/24 00:08:30;;;;;;;;;;;;;;;11.45;49.63;99576.72;5063688;28;19940;-81
2022/04/24 00:10:55;;;;;;;;;;;;;;;11.50;49.88;99576.56;5037315;28;19921;-81
2022/04/24 00:13:23;;;;;;;;;;;;;;;11.47;50.68;99579.28;5044381;28;20141;-78
2022/04/24 00:15:48;;;;;;;;;;;;;;;11.46;50.09;99575.84;5055989;28;19924;-77
2022/04/24 00:18:13;;;;;;;;;;;;;;;11.40;50.20;99576.09;5056725;28;19939;-77
2022/04/24 00:20:38;;;;;;;;;;;;;;;11.30;50.25;99577.38;5057653;28;19925;-77
2022/04/24 00:23:04;;;;;;;;;;;;;;;11.36;50.21;99571.94;5056679;28;20018;-77
2022/04/24 00:25:29;;;;;;;;;;;;;;;11.35;50.79;99567.66;5051563;28;19925;-77
2022/04/24 00:27:54;;;;;;;;;;;;;;;11.41;50.33;99559.56;5051507;28;19924;-77
2022/04/24 00:30:20;;;;;;;;;;;;;;;11.40;51.10;99570.91;5047908;28;19917;-77
2022/04/24 00:32:45;;;;;;;;;;;;;;;11.44;51.29;99564.63;5053130;28;19998;-77
2022/04/24 00:35:10;;;;;;;;;;;;;;;11.40;50.65;99568.31;5051397;28;20003;-77
2022/04/24 00:37:36;;;;;;;;;;;;;;;11.31;50.61;99570.44;5047942;28;19928;-77
2022/04/24 00:40:04;;;;;;;;;;;;;;;11.30;50.73;99563.53;5056086;28;19920;-77
2022/04/24 00:42:29;;;;;;;;;;;;;;;11.36;50.36;99566.72;5061772;28;20374;-77
2022/04/24 00:44:55;;;;;;;;;;;;;;;11.29;50.56;99562.72;5053531;28;19924;-77
2022/04/24 00:47:21;;;;;;;;;;;;;;;11.31;50.67;99566.09;5057035;28;19920;-77
2022/04/24 00:49:47;;;;;;;;;;;;;;;11.26;51.54;99568.03;5043600;28;19996;-77
2022/04/24 00:52:13;;;;;;;;;;;;;;;11.36;50.55;99566.72;5057138;28;20015;-77
2022/04/24 00:54:38;;;;;;;;;;;;;;;11.26;50.58;99562.81;5041872;28;20011;-73
2022/04/24 00:57:11;;;;;;;;;;;;;;;11.14;50.92;99565.09;5052473;28;19933;-81
2022/04/24 00:59:40;;;;;;;;;;;;;;;11.34;51.29;99559.91;5052774;28;19943;-78
2022/04/24 01:02:06;;;;;;;;;;;;;;;11.33;50.56;99564.25;5048798;28;19928;-73
2022/04/24 01:04:33;;;;;;;;;;;;;;;11.18;50.52;99561.44;5058270;28;20340;-73
2022/04/24 01:06:59;;;;;;;;;;;;;;;11.28;50.43;99567.97;5048212;28;19983;-73
2022/04/24 01:09:24;;;;;;;;;;;;;;;11.29;50.64;99564.47;5044629;28;19964;-73
2022/04/24 01:11:50;;;;;;;;;;;;;;;11.25;50.30;99562.88;5055869;28;20007;-73
2022/04/24 01:14:16;;;;;;;;;;;;;;;11.19;50.97;99557.94;5050054;28;19928;-73
2022/04/24 01:16:42;;;;;;;;;;;;;;;11.26;50.93;99561.97;5050576;28;19944;-73
2022/04/24 01:19:08;;;;;;;;;;;;;;;11.30;50.64;99554.00;5050409;28;19920;-73
2022/04/24 01:21:33;;;;;;;;;;;;;;;11.36;50.20;99555.47;5057096;28;20030;-77
2022/04/24 01:23:59;;;;;;;;;;;;;;;11.38;49.29;99551.09;5035187;28;20377;-77
2022/04/24 01:26:24;;;;;;;;;;;;;;;11.43;48.64;99544.75;5045218;28;20002;-73
2022/04/24 01:28:49;;;;;;;;;;;;;;;11.47;48.43;99551.50;5040032;28;19931;-73
2022/04/24 01:31:15;;;;;;;;;;;;;;;11.38;50.25;99549.31;5049915;28;19925;-73
2022/04/24 01:33:40;;;;;;;;;;;;;;;11.44;48.92;99551.63;5046347;28;19992;-77
2022/04/24 01:36:05;;;;;;;;;;;;;;;11.34;50.02;99554.72;5035273;28;20039;-81
2022/04/24 01:38:31;;;;;;;;;;;;;;;11.34;50.58;99558.16;5050366;28;20011;-81
2022/04/24 01:40:56;;;;;;;;;;;;;;;11.32;50.41;99554.78;5052618;28;19932;-77
2022/04/24 01:43:21;;;;;;;;;;;;;;;11.25;51.21;99558.53;5053959;28;20599;-81
2022/04/24 01:45:47;;;;;;;;;;;;;;;11.12;50.66;99554.75;5058083;28;20388;-81
2022/04/24 01:48:13;;;;;;;;;;;;;;;11.19;51.06;99555.34;5049435;28;19929;-77
2022/04/24 01:50:38;;;;;;;;;;;;;;;11.16;51.06;99547.66;5045979;28;20056;-77
2022/04/24 01:53:04;;;;;;;;;;;;;;;11.15;51.45;99552.00;5049678;28;20015;-77
2022/04/24 01:55:29;;;;;;;;;;;;;;;11.05;50.98;99545.53;5051696;28;20075;-77
2022/04/24 01:57:54;;;;;;;;;;;;;;;11.14;52.00;99547.75;5044790;28;20467;-77
2022/04/24 02:00:20;;;;;;;;;;;;;;;10.94;52.23;99545.13;5034008;28;19963;-81
2022/04/24 02:02:46;;;;;;;;;;;;;;;11.05;52.63;99547.28;5048811;28;19925;-73
2022/04/24 02:05:12;;;;;;;;;;;;;;;10.93;51.96;99548.66;5053827;28;19920;-77
2022/04/24 02:07:37;;;;;;;;;;;;;;;10.87;52.30;99554.09;5038089;28;19912;-81
2022/04/24 02:10:03;;;;;;;;;;;;;;;10.81;52.22;99554.34;5016922;28;19924;-78
2022/04/24 02:12:30;;;;;;;;;;;;;;;10.99;52.50;99558.78;5051850;28;19986;-78
2022/04/24 02:14:55;;;;;;;;;;;;;;;11.00;52.12;99550.91;5053547;28;20024;-77
2022/04/24 02:17:20;;;;;;;;;;;;;;;10.83;52.64;99555.13;5056389;28;20440;-77
2022/04/24 02:19:46;;;;;;;;;;;;;;;10.66;53.51;99554.97;5062038;28;19921;-77
2022/04/24 02:22:11;;;;;;;;;;;;;;;10.82;52.79;99566.44;5053053;28;19925;-77
2022/04/24 02:24:36;;;;;;;;;;;;;;;10.83;52.18;99553.38;5060040;28;19931;-77
2022/04/24 02:27:02;;;;;;;;;;;;;;;10.81;52.86;99555.19;5037884;28;19936;-77
2022/04/24 02:29:28;;;;;;;;;;;;;;;10.67;53.19;99556.66;5053241;28;19920;-77
2022/04/24 02:31:54;;;;;;;;;;;;;;;10.81;52.58;99555.19;5035357;28;19932;-77
2022/04/24 02:34:19;;;;;;;;;;;;;;;10.64;53.66;99555.00;5051236;28;19920;-77
2022/04/24 02:36:45;;;;;;;;;;;;;;;10.69;53.21;99557.44;5052618;28;19936;-77
2022/04/24 02:39:10;;;;;;;;;;;;;;;10.68;53.30;99558.34;5049879;28;19920;-77
2022/04/24 02:41:35;;;;;;;;;;;;;;;10.62;53.75;99548.19;5030917;28;19951;-77
2022/04/24 02:44:01;;;;;;;;;;;;;;;10.59;53.86;99551.78;5032041;28;19921;-77
2022/04/24 02:46:26;;;;;;;;;;;;;;;10.55;53.33;99551.97;5029434;28;19921;-77
2022/04/24 02:48:52;;;;;;;;;;;;;;;10.63;53.19;99548.16;5042408;28;19928;-73
2022/04/24 02:51:17;;;;;;;;;;;;;;;10.58;53.61;99549.25;5052856;28;20381;-73
2022/04/24 02:53:43;;;;;;;;;;;;;;;10.55;53.91;99545.03;5052674;28;19925;-73
2022/04/24 02:56:08;;;;;;;;;;;;;;;10.65;53.28;99546.31;5061201;28;19967;-76
2022/04/24 02:58:33;;;;;;;;;;;;;;;10.69;53.76;99544.47;5057350;28;19927;-77
2022/04/24 03:00:59;;;;;;;;;;;;;;;10.62;53.91;99546.44;5037383;28;20383;-77
2022/04/24 03:03:25;;;;;;;;;;;;;;;10.68;54.04;99553.16;5057102;28;20015;-77
2022/04/24 03:05:50;;;;;;;;;;;;;;;10.62;54.08;99553.38;5069940;28;19982;-73
2022/04/24 03:08:16;;;;;;;;;;;;;;;10.62;54.28;99554.25;5057800;28;19921;-73
2022/04/24 03:10:41;;;;;;;;;;;;;;;10.58;53.97;99555.28;5022192;28;19924;-73
2022/04/24 03:13:07;;;;;;;;;;;;;;;10.57;54.38;99540.59;5032157;28;20023;-73
2022/04/24 03:15:32;;;;;;;;;;;;;;;10.49;54.59;99553.06;5047651;28;19995;-77
2022/04/24 03:17:58;;;;;;;;;;;;;;;10.51;55.32;99543.44;5037999;28;19925;-81
2022/04/24 03:20:23;;;;;;;;;;;;;;;10.57;54.34;99540.59;5026067;28;19924;-73
2022/04/24 03:22:49;;;;;;;;;;;;;;;10.64;54.16;99551.59;5049401;28;19917;-82
2022/04/24 03:25:15;;;;;;;;;;;;;;;10.71;53.07;99546.09;5033351;28;19948;-81
2022/04/24 03:27:40;;;;;;;;;;;;;;;10.62;53.17;99541.25;5048908;28;19924;-81
2022/04/24 03:30:06;;;;;;;;;;;;;;;10.74;52.61;99535.56;5052500;28;19971;-81
2022/04/24 03:32:32;;;;;;;;;;;;;;;10.73;52.90;99535.66;5050444;28;19927;-77
2022/04/24 03:34:58;;;;;;;;;;;;;;;10.70;53.06;99530.56;5056712;28;20003;-77
2022/04/24 03:37:23;;;;;;;;;;;;;;;10.76;53.64;99527.72;5050006;28;19929;-73
2022/04/24 03:39:49;;;;;;;;;;;;;;;10.61;53.54;99538.75;5051016;28;20316;-73
2022/04/24 03:42:14;;;;;;;;;;;;;;;10.47;54.10;99544.47;5049495;28;19929;-77
2022/04/24 03:44:39;;;;;;;;;;;;;;;10.41;54.68;99532.59;5054213;28;20178;-77
2022/04/24 03:47:06;;;;;;;;;;;;;;;10.38;54.38;99537.03;5051392;28;20564;-77
2022/04/24 03:49:31;;;;;;;;;;;;;;;10.26;55.00;99542.72;5056878;28;19956;-77
2022/04/24 03:51:56;;;;;;;;;;;;;;;10.40;54.66;99550.84;5054866;28;19963;-77
2022/04/24 03:54:22;;;;;;;;;;;;;;;10.49;54.79;99549.63;5052576;28;19924;-77
2022/04/24 03:56:47;;;;;;;;;;;;;;;10.30;54.75;99544.28;5044214;28;19933;-77
2022/04/24 03:59:13;;;;;;;;;;;;;;;10.28;54.91;99546.97;5048474;28;19920;-77
2022/04/24 04:01:39;;;;;;;;;;;;;;;10.25;55.25;99549.69;5059180;28;20443;-77
2022/04/24 04:04:04;;;;;;;;;;;;;;;10.26;55.29;99543.56;5052301;28;19947;-81
2022/04/24 04:06:29;;;;;;;;;;;;;;;10.38;54.71;99547.44;5051823;28;19927;-82
2022/04/24 04:08:54;;;;;;;;;;;;;;;10.37;54.82;99543.16;5047560;28;19975;-81
2022/04/24 04:11:20;;;;;;;;;;;;;;;10.36;54.79;99541.47;5055826;28;19921;-81
2022/04/24 04:13:45;;;;;;;;;;;;;;;10.37;55.21;99549.16;5057522;28;20394;-73
2022/04/24 04:16:10;;;;;;;;;;;;;;;10.34;54.85;99557.09;5051096;28;20631;-73
2022/04/24 04:18:36;;;;;;;;;;;;;;;10.28;55.77;99551.31;5053815;28;19924;-73
2022/04/24 04:21:01;;;;;;;;;;;;;;;10.37;54.59;99543.97;5043560;28;19978;-73
2022/04/24 04:23:26;;;;;;;;;;;;;;;10.29;54.64;99551.22;5052245;28;19971;-73
2022/04/24 04:25:52;;;;;;;;;;;;;;;10.15;55.35;99558.72;5050966;28;20003;-73
2022/04/24 04:28:17;;;;;;;;;;;;;;;10.14;55.81;99557.00;5049297;28;19920;-73
2022/04/24 04:30:42;;;;;;;;;;;;;;;10.29;55.22;99558.16;5058452;28;19994;-73
2022/04/24 04:33:09;;;;;;;;;;;;;;;10.31;55.49;99562.41;5052405;28;19920;-73
2022/04/24 04:35:35;;;;;;;;;;;;;;;10.25;55.55;99560.06;5047271;28;19928;-77
2022/04/24 04:38:00;;;;;;;;;;;;;;;10.39;55.40;99555.16;5029696;28;19929;-77
2022/04/24 04:40:26;;;;;;;;;;;;;;;10.40;55.79;99558.63;5043359;28;19931;-81
2022/04/24 04:42:51;;;;;;;;;;;;;;;10.38;55.62;99568.19;5054129;28;20374;-78
2022/04/24 04:45:17;;;;;;;;;;;;;;;10.38;56.10;99568.19;5052900;28;19987;-78
2022/04/24 04:47:43;;;;;;;;;;;;;;;10.27;56.16;99575.56;5048177;28;19925;-78
2022/04/24 04:50:09;;;;;;;;;;;;;;;10.12;56.83;99581.34;5029515;28;19931;-78
2022/04/24 04:52:35;;;;;;;;;;;;;;;10.30;55.41;99576.28;5056786;28;19924;-78
2022/04/24 04:55:00;;;;;;;;;;;;;;;10.42;55.02;99581.00;5049844;28;19936;-78
2022/04/24 04:57:26;;;;;;;;;;;;;;;10.28;56.56;99591.09;5056027;28;19928;-78
2022/04/24 04:59:51;;;;;;;;;;;;;;;10.42;55.47;99594.00;5049578;28;19932;-78
2022/04/24 05:02:16;;;;;;;;;;;;;;;10.46;53.95;99584.34;5053318;28;20357;-78
2022/04/24 05:04:45;;;;;;;;;;;;;;;10.56;53.46;99593.44;5056023;28;19925;-78
2022/04/24 05:07:11;;;;;;;;;;;;;;;10.57;54.12;99589.94;5046135;28;19928;-78
2022/04/24 05:09:36;;;;;;;;;;;;;;;10.50;52.98;99595.44;5045203;28;20509;-77
2022/04/24 05:12:01;;;;;;;;;;;;;;;10.48;52.48;99598.09;5046094;28;20023;-81
2022/04/24 05:14:27;;;;;;;;;;;;;;;10.58;52.43;99589.06;5053189;28;19940;-81
2022/04/24 05:16:52;;;;;;;;;;;;;;;10.57;53.16;99595.13;5044926;28;19925;-81
2022/04/24 05:19:17;;;;;;;;;;;;;;;10.65;52.88;99590.47;5033958;28;19963;-73
2022/04/24 05:21:42;;;;;;;;;;;;;;;10.57;52.12;99595.13;5052676;28;19929;-73
2022/04/24 05:24:08;;;;;;;;;;;;;;;10.73;51.81;99597.97;5050889;28;19928;-73
2022/04/24 05:26:33;;;;;;;;;;;;;;;10.70;51.44;99598.09;5048226;28;19963;-73
2022/04/24 05:28:58;;;;;;;;;;;;;;;10.70;51.92;99605.91;5053004;28;19917;-73
2022/04/24 05:31:24;;;;;;;;;;;;;;;10.62;51.01;99605.31;5046869;28;19932;-73
2022/04/24 05:33:49;;;;;;;;;;;;;;;10.68;51.15;99608.53;5049945;28;19928;-73
2022/04/24 05:36:14;;;;;;;;;;;;;;;10.68;51.95;99616.31;5059273;28;19928;-74
2022/04/24 05:38:39;;;;;;;;;;;;;;;10.74;52.20;99618.69;5048363;28;20507;-73
2022/04/24 05:41:05;;;;;;;;;;;;;;;10.81;51.34;99614.94;5055112;28;19920;-73
2022/04/24 05:43:30;;;;;;;;;;;;;;;10.64;50.41;99614.75;5057923;28;20647;-73
2022/04/24 05:45:56;;;;;;;;;;;;;;;10.65;50.47;99620.78;5053334;28;19921;-73
2022/04/24 05:48:22;;;;;;;;;;;;;;;10.77;50.43;99618.56;5047349;28;19924;-73
2022/04/24 05:50:47;;;;;;;;;;;;;;;10.71;50.55;99625.75;5057033;28;19925;-73
2022/04/24 05:53:13;;;;;;;;;;;;;;;10.77;50.04;99623.75;5056960;28;19924;-73
2022/04/24 05:55:38;;;;;;;;;;;;;;;10.94;50.75;99623.91;5054200;28;20040;-77
2022/04/24 05:58:03;;;;;;;;;;;;;;;10.93;50.81;99627.44;5060763;28;20453;-77
2022/04/24 06:00:29;;;;;;;;;;;;;;;10.99;50.37;99619.41;5048667;28;19936;-77
2022/04/24 06:02:54;;;;;;;;;;;;;;;11.00;49.45;99620.22;5031236;28;19935;-81
2022/04/24 06:05:20;;;;;;;;;;;;;;;10.94;49.99;99628.25;5058284;28;19928;-81
2022/04/24 06:07:45;;;;;;;;;;;;;;;10.93;50.17;99618.81;5036067;28;19956;-81
2022/04/24 06:10:11;;;;;;;;;;;;;;;11.13;50.55;99626.63;5051128;28;19921;-81
2022/04/24 06:12:53;;;;;;;;;;;;;;;11.20;50.25;99625.47;5047162;28;19924;-77
2022/04/24 06:15:21;;;;;;;;;;;;;;;11.10;52.45;99631.09;5049588;28;19951;-77
2022/04/24 06:17:47;;;;;;;;;;;;;;;11.16;50.46;99621.28;5050488;28;20644;-81
2022/04/24 06:20:13;;;;;;;;;;;;;;;11.17;50.95;99635.13;5051069;28;19959;-81
2022/04/24 06:22:48;;;;;;;;;;;;;;;11.22;51.30;99628.00;5050392;28;19913;-78
2022/04/24 06:25:21;;;;;;;;;;;;;;;11.10;50.33;99629.34;5051527;28;19928;-77
2022/04/24 06:27:47;;;;;;;;;;;;;;;11.27;51.37;99632.09;5051884;28;19987;-77
2022/04/24 06:30:13;;;;;;;;;;;;;;;11.21;52.95;99628.88;5055078;28;20389;-77
2022/04/24 06:32:39;;;;;;;;;;;;;;;11.29;52.40;99629.47;5051629;28;19924;-77
2022/04/24 06:35:05;;;;;;;;;;;;;;;11.42;51.80;99631.47;5053073;28;19917;-77
2022/04/24 06:37:30;;;;;;;;;;;;;;;11.36;51.21;99636.94;5052261;28;20440;-77
2022/04/24 06:39:56;;;;;;;;;;;;;;;11.31;51.02;99632.84;5052353;28;20301;-77
2022/04/24 06:42:22;;;;;;;;;;;;;;;11.38;51.75;99634.28;5044612;28;19929;-73
2022/04/24 06:44:48;;;;;;;;;;;;;;;11.47;50.07;99636.50;5050037;28;19928;-73
2022/04/24 06:47:13;;;;;;;;;;;;;;;11.45;51.58;99636.53;5050919;28;20376;-73
2022/04/24 06:49:41;;;;;;;;;;;;;;;11.53;49.72;99641.44;5044174;28;19931;-73
2022/04/24 06:52:06;;;;;;;;;;;;;;;11.35;50.96;99637.88;5046321;28;20360;-73
2022/04/24 06:54:34;;;;;;;;;;;;;;;11.42;51.91;99646.22;5055843;28;19924;-73
2022/04/24 06:57:01;;;;;;;;;;;;;;;11.46;51.59;99642.59;5048679;28;19929;-77
2022/04/24 06:59:27;;;;;;;;;;;;;;;11.48;52.13;99646.81;5049212;28;19917;-77
2022/04/24 07:01:52;;;;;;;;;;;;;;;11.49;51.56;99645.06;5055303;28;20023;-76
2022/04/24 07:04:18;;;;;;;;;;;;;;;11.54;52.02;99645.72;5066113;28;20281;-73
2022/04/24 07:06:43;;;;;;;;;;;;;;;11.62;51.79;99643.66;5043839;28;20518;-77
2022/04/24 07:09:08;;;;;;;;;;;;;;;11.62;51.96;99638.44;5046279;28;19925;-73
2022/04/24 07:11:35;;;;;;;;;;;;;;;11.63;50.20;99639.25;5051778;28;19930;-81
2022/04/24 07:14:00;;;;;;;;;;;;;;;11.50;50.24;99634.59;5039032;28;20008;-81
2022/04/24 07:16:25;;;;;;;;;;;;;;;11.60;48.54;99635.03;5047468;28;20015;-81
2022/04/24 07:18:51;;;;;;;;;;;;;;;11.57;48.76;99641.22;5051861;28;19999;-82
2022/04/24 07:21:16;;;;;;;;;;;;;;;11.54;49.32;99646.56;5055447;28;19921;-81
2022/04/24 07:23:41;;;;;;;;;;;;;;;11.58;49.88;99644.69;5048139;28;19960;-73
2022/04/24 07:26:06;;;;;;;;;;;;;;;11.57;49.23;99635.19;5012609;28;20377;-74
2022/04/24 07:28:32;;;;;;;;;;;;;;;11.53;49.02;99634.44;5064105;28;19928;-78
2022/04/24 07:30:58;;;;;;;;;;;;;;;11.49;50.89;99630.31;5068074;28;20415;-78
2022/04/24 07:33:23;;;;;;;;;;;;;;;11.59;49.61;99624.72;5051689;28;20034;-81
2022/04/24 07:35:48;;;;;;;;;;;;;;;11.68;48.09;99621.72;5062720;28;19924;-81
2022/04/24 07:38:13;;;;;;;;;;;;;;;11.75;49.11;99625.72;5051061;28;19932;-81
2022/04/24 07:40:39;;;;;;;;;;;;;;;11.81;48.28;99623.72;5051829;28;19927;-81
2022/04/24 07:43:05;;;;;;;;;;;;;;;11.81;47.63;99625.47;5055956;28;19987;-82
2022/04/24 07:45:37;;;;;;;;;;;;;;;11.92;47.69;99629.28;5063317;28;19920;-82
2022/04/24 07:48:03;;;;;;;;;;;;;;;11.92;48.22;99631.03;5048357;28;19986;-81
2022/04/24 07:50:30;;;;;;;;;;;;;;;11.86;47.90;99628.72;5046155;28;19929;-81
2022/04/24 07:52:55;;;;;;;;;;;;;;;11.94;48.40;99630.06;5056192;28;19927;-81
2022/04/24 07:55:22;;;;;;;;;;;;;;;12.02;47.47;99627.97;5061673;28;19928;-74
2022/04/24 07:57:48;;;;;;;;;;;;;;;11.96;47.63;99633.44;5051089;28;19933;-79
2022/04/24 08:00:15;;;;;;;;;;;;;;;12.07;46.92;99619.94;5045180;28;19925;-78
2022/04/24 08:03:02;;;;;;;;;;;;;;;12.07;46.72;99620.78;5052952;28;19924;-78
2022/04/24 08:05:29;;;;;;;;;;;;;;;12.03;47.64;99619.25;5046686;28;20019;-78
2022/04/24 08:07:55;;;;;;;;;;;;;;;12.13;47.70;99619.66;5056777;28;20061;-78
2022/04/24 08:10:21;;;;;;;;;;;;;;;12.15;47.72;99623.06;5045820;28;19924;-79
2022/04/24 08:12:47;;;;;;;;;;;;;;;12.19;47.78;99624.59;5047928;28;19921;-81
2022/04/24 08:15:12;;;;;;;;;;;;;;;12.12;47.30;99620.59;5050587;28;20393;-78
2022/04/24 08:17:38;;;;;;;;;;;;;;;12.21;47.55;99622.78;5048612;28;19932;-78
2022/04/24 08:20:04;;;;;;;;;;;;;;;12.25;47.72;99623.47;5052428;28;19920;-78
2022/04/24 08:22:43;;;;;;;;;;;;;;;12.23;46.77;99620.94;5054329;28;19931;-78
2022/04/24 08:25:09;;;;;;;;;;;;;;;12.22;46.69;99616.63;5046426;28;19929;-78
2022/04/24 08:27:35;;;;;;;;;;;;;;;12.23;46.31;99614.88;5046368;28;19963;-74
2022/04/24 08:30:00;;;;;;;;;;;;;;;12.34;47.30;99613.47;5046908;28;19975;-78
2022/04/24 08:32:26;;;;;;;;;;;;;;;12.38;47.02;99612.41;5047920;28;19917;-81
2022/04/24 08:34:51;;;;;;;;;;;;;;;12.42;46.97;99613.13;5048725;28;19925;-81
2022/04/24 08:37:17;;;;;;;;;;;;;;;12.51;46.28;99612.69;5044466;28;19948;-74
2022/04/24 08:39:42;;;;;;;;;;;;;;;12.49;47.04;99612.75;5046473;28;19932;-77
2022/04/24 08:42:09;;;;;;;;;;;;;;;12.53;46.74;99610.88;5050063;28;19978;-77
2022/04/24 08:44:35;;;;;;;;;;;;;;;12.51;46.78;99608.31;5054157;28;20274;-77
2022/04/24 08:47:01;;;;;;;;;;;;;;;12.57;46.41;99612.44;5018626;28;19978;-77
2022/04/24 08:49:27;;;;;;;;;;;;;;;12.61;46.74;99612.22;5050754;28;20389;-77
2022/04/24 08:51:53;;;;;;;;;;;;;;;12.62;46.64;99610.44;5045401;28;19935;-77
2022/04/24 08:54:19;;;;;;;;;;;;;;;12.63;46.40;99607.75;5042367;28;19982;-77
2022/04/24 08:56:44;;;;;;;;;;;;;;;12.71;46.72;99606.56;5044277;28;20437;-77
2022/04/24 08:59:10;;;;;;;;;;;;;;;12.75;46.46;99608.13;5051681;28;19932;-77
2022/04/24 09:01:43;;;;;;;;;;;;;;;12.76;46.87;99608.03;5048931;28;19952;-77
2022/04/24 09:04:09;;;;;;;;;;;;;;;12.72;45.89;99614.28;5048308;28;20469;-77
2022/04/24 09:06:34;;;;;;;;;;;;;;;12.62;46.28;99610.44;5043495;28;19925;-77
2022/04/24 09:09:05;;;;;;;;;;;;;;;12.62;46.07;99613.91;5045835;28;19987;-77
2022/04/24 09:11:31;;;;;;;;;;;;;;;12.61;45.89;99604.41;5049536;28;19924;-80
2022/04/24 09:14:15;;;;;;;;;;;;;;;12.59;45.70;99606.25;5041946;28;19909;-73
2022/04/24 09:16:47;;;;;;;;;;;;;;;12.62;46.22;99605.25;5043748;28;19948;-74
2022/04/24 09:19:20;;;;;;;;;;;;;;;12.61;46.69;99609.59;5049016;28;19936;-73
2022/04/24 09:21:45;;;;;;;;;;;;;;;12.63;46.45;99601.72;5045831;28;19921;-73
2022/04/24 09:24:11;;;;;;;;;;;;;;;12.59;46.98;99595.81;5055636;28;19924;-73
2022/04/24 09:26:36;;;;;;;;;;;;;;;12.62;46.51;99590.47;5051686;28;19932;-73
2022/04/24 09:29:01;;;;;;;;;;;;;;;12.75;46.00;99589.88;5056721;28;20056;-80
2022/04/24 09:31:30;;;;;;;;;;;;;;;12.86;45.96;99595.41;5049386;28;19927;-80
2022/04/24 09:33:55;;;;;;;;;;;;;;;12.95;45.67;99579.31;5041836;28;19925;-80
2022/04/24 09:36:24;;;;;;;;;;;;;;;13.02;45.58;99604.13;5054035;28;19925;-80
2022/04/24 09:38:49;;;;;;;;;;;;;;;13.08;47.17;99585.59;5049830;28;19920;-80
2022/04/24 09:41:19;;;;;;;;;;;;;;;13.08;48.51;99599.47;5050297;28;19921;-81
2022/04/24 09:43:45;;;;;;;;;;;;;;;13.17;48.61;99601.63;5037612;28;19924;-81
2022/04/24 09:46:10;;;;;;;;;;;;;;;13.22;46.31;99583.16;5047252;28;19928;-81
2022/04/24 09:48:35;;;;;;;;;;;;;;;13.20;49.81;99596.25;5035823;28;20278;-77
2022/04/24 09:51:01;;;;;;;;;;;;;;;13.26;46.12;99595.09;5046964;28;19925;-77
2022/04/24 09:53:28;;;;;;;;;;;;;;;13.34;48.90;99595.56;5047434;28;20392;-78
2022/04/24 09:55:54;;;;;;;;;;;;;;;13.46;46.11;99597.53;5046781;28;19927;-78
2022/04/24 09:58:22;;;;;;;;;;;;;;;13.52;43.47;99585.97;5047554;28;19925;-78
2022/04/24 10:00:50;;;;;;;;;;;;;;;13.50;47.83;99598.22;5048745;28;19927;-78
2022/04/24 10:03:16;;;;;;;;;;;;;;;13.51;45.81;99594.69;5048803;28;19929;-81
2022/04/24 10:05:43;;;;;;;;;;;;;;;13.46;48.87;99597.53;5052236;28;19964;-81
2022/04/24 10:08:09;;;;;;;;;;;;;;;13.59;46.42;99603.81;5045094;28;19928;-81
2022/04/24 10:10:34;;;;;;;;;;;;;;;13.64;46.28;99598.38;5052069;28;19921;-81
2022/04/24 10:13:00;;;;;;;;;;;;;;;13.56;46.69;99603.97;5045923;28;20329;-77
2022/04/24 10:15:27;;;;;;;;;;;;;;;13.48;49.20;99608.75;5042608;28;19933;-77
2022/04/24 10:18:18;;;;;;;;;;;;;;;13.55;46.33;99614.50;5042695;28;20522;-77
2022/04/24 10:20:50;;;;;;;;;;;;;;;13.59;45.18;99610.78;5034164;28;19916;-77
2022/04/24 10:23:26;;;;;;;;;;;;;;;13.52;46.64;99612.88;5057370;28;19916;-77
2022/04/24 10:25:51;;;;;;;;;;;;;;;13.75;45.84;99614.34;5031363;28;19925;-81
2022/04/24 10:28:17;;;;;;;;;;;;;;;13.61;45.34;99611.59;5061884;28;20324;-77
2022/04/24 10:30:45;;;;;;;;;;;;;;;13.71;45.48;99605.81;5054709;28;19944;-77
2022/04/24 10:33:15;;;;;;;;;;;;;;;13.69;47.36;99622.50;5056654;28;19920;-77
2022/04/24 10:35:54;;;;;;;;;;;;;;;13.68;47.64;99620.78;5059218;28;19924;-77
2022/04/24 10:38:21;;;;;;;;;;;;;;;13.68;49.17;99623.41;5072539;28;20284;-77
2022/04/24 10:40:56;;;;;;;;;;;;;;;13.87;45.84;99620.69;5048813;28;19932;-77
2022/04/24 10:43:21;;;;;;;;;;;;;;;13.76;48.16;99627.28;5063177;28;19924;-81
2022/04/24 10:45:47;;;;;;;;;;;;;;;13.84;44.15;99620.84;5054579;28;19978;-81
2022/04/24 10:48:16;;;;;;;;;;;;;;;13.76;47.06;99622.06;5048976;28;19929;-81
2022/04/24 10:50:49;;;;;;;;;;;;;;;13.77;45.23;99615.94;5053417;28;19924;-81
2022/04/24 10:53:14;;;;;;;;;;;;;;;13.77;48.13;99620.31;5045136;28;19928;-81
2022/04/24 10:55:40;;;;;;;;;;;;;;;13.73;45.98;99629.22;5049247;28;20624;-81
2022/04/24 10:58:06;;;;;;;;;;;;;;;13.69;48.46;99631.16;5049151;28;19925;-81
2022/04/24 11:00:35;;;;;;;;;;;;;;;13.81;44.52;99624.47;5049907;28;20200;-77
2022/04/24 11:03:04;;;;;;;;;;;;;;;13.80;45.18;99621.91;5048224;28;19925;-77
2022/04/24 11:05:35;;;;;;;;;;;;;;;13.72;44.87;99633.63;5035185;28;20329;-77
2022/04/24 11:08:04;;;;;;;;;;;;;;;13.77;45.67;99628.16;5056722;28;19956;-77
2022/04/24 11:10:30;;;;;;;;;;;;;;;13.83;43.36;99621.75;5060846;28;20054;-77
2022/04/24 11:12:56;;;;;;;;;;;;;;;13.90;43.20;99628.34;5050819;28;20455;-77
2022/04/24 11:15:21;;;;;;;;;;;;;;;13.86;43.50;99619.84;5041356;28;19925;-81
2022/04/24 11:17:47;;;;;;;;;;;;;;;13.99;44.09;99617.44;5056009;28;20362;-81
2022/04/24 11:20:13;;;;;;;;;;;;;;;13.94;43.12;99619.44;5052408;28;20385;-81
2022/04/24 11:22:46;;;;;;;;;;;;;;;13.95;43.22;99619.34;5055460;28;19924;-77
2022/04/24 11:25:16;;;;;;;;;;;;;;;14.01;42.69;99612.97;5049488;28;19932;-78
2022/04/24 11:27:44;;;;;;;;;;;;;;;13.88;45.21;99619.78;5053719;28;19921;-78
2022/04/24 11:30:13;;;;;;;;;;;;;;;13.92;47.11;99622.13;5055339;28;19931;-78
2022/04/24 11:32:39;;;;;;;;;;;;;;;13.88;45.52;99617.16;5048120;28;20014;-78
2022/04/24 11:35:06;;;;;;;;;;;;;;;13.77;46.21;99613.34;5057351;28;20400;-77
2022/04/24 11:37:31;;;;;;;;;;;;;;;13.93;46.06;99615.16;5046136;28;19929;-78
2022/04/24 11:40:00;;;;;;;;;;;;;;;14.05;42.70;99612.72;5051681;28;21269;-81
2022/04/24 11:42:26;;;;;;;;;;;;;;;14.06;44.48;99617.00;5052994;28;19925;-78
2022/04/24 11:50:18;;;;;;;;;;;;;;;14.15;39.21;99619.13;5052793;28;19979;-73
2022/04/24 11:52:48;;;;;;;;;;;;;;;14.22;40.93;99624.88;5052569;28;19924;-73
2022/04/24 11:55:13;;;;;;;;;;;;;;;13.97;42.28;99629.69;5057637;28;19963;-78
2022/04/24 11:57:39;;;;;;;;;;;;;;;14.00;42.31;99625.16;5053931;28;19972;-77
2022/04/24 12:00:08;;;;;;;;;;;;;;;14.06;41.35;99632.69;5037341;28;19921;-77
2022/04/24 12:02:35;;;;;;;;;;;;;;;14.11;41.15;99635.06;5055635;28;19959;-77
2022/04/24 12:05:00;;;;;;;;;;;;;;;14.11;41.50;99629.84;5056787;28;20271;-73
2022/04/24 12:07:31;;;;;;;;;;;;;;;14.11;41.04;99633.28;5050956;28;19951;-73
2022/04/24 12:10:01;;;;;;;;;;;;;;;14.08;41.52;99636.06;5047516;28;20019;-81
2022/04/24 12:12:26;;;;;;;;;;;;;;;14.13;40.73;99635.81;5055228;28;19963;-77
2022/04/24 12:14:52;;;;;;;;;;;;;;;14.21;40.66;99644.06;5050012;28;19967;-77
2022/04/24 12:17:18;;;;;;;;;;;;;;;14.14;40.28;99643.59;5047981;28;20386;-81
2022/04/24 12:19:49;;;;;;;;;;;;;;;14.14;39.69;99643.59;5041918;28;19920;-81
2022/04/24 12:22:15;;;;;;;;;;;;;;;14.30;39.09;99646.19;5054395;28;20373;-81
2022/04/24 12:24:44;;;;;;;;;;;;;;;14.33;39.26;99643.41;5057960;28;19927;-81
2022/04/24 12:27:12;;;;;;;;;;;;;;;14.30;39.81;99649.66;5051009;28;19968;-81
2022/04/24 12:29:45;;;;;;;;;;;;;;;14.27;39.43;99655.03;5042783;28;19955;-81
2022/04/24 12:32:13;;;;;;;;;;;;;;;14.40;40.94;99662.22;5049615;28;19924;-81
2022/04/24 12:34:39;;;;;;;;;;;;;;;14.47;41.66;99656.59;5044159;28;20520;-77
2022/04/24 12:37:04;;;;;;;;;;;;;;;14.37;42.64;99660.63;5053208;28;20184;-77
2022/04/24 12:39:32;;;;;;;;;;;;;;;14.43;41.28;99659.44;5031079;28;20429;-77
2022/04/24 12:41:57;;;;;;;;;;;;;;;14.52;40.56;99653.72;5050435;28;19943;-77
2022/04/24 12:44:23;;;;;;;;;;;;;;;14.53;40.14;99658.84;5055677;28;19924;-77
2022/04/24 12:46:49;;;;;;;;;;;;;;;14.54;40.94;99657.09;5053968;28;19920;-81
2022/04/24 12:49:25;;;;;;;;;;;;;;;14.59;39.93;99653.28;5042760;28;19924;-81